sensor_id;sensor_type;location;lat;lon;timestamp;P1;durP1;ratioP1;P2;durP2;ratioP2
27744;SDS011;61387;48.112;8.616;2023-01-08T00:00:46;21.17;;;11.83;;
27744;SDS011;61387;48.112;8.616;2023-01-08T00:03:12;20.83;;;12.17;;
27744;SDS011;61387;48.112;8.616;2023-01-08T00:05:38;25.47;;;13.37;;
27744;SDS011;61387;48.112;8.616;2023-01-08T00:08:04;21.80;;;12.07;;
27744;SDS011;61387;48.112;8.616;2023-01-08T00:10:32;23.13;;;12.60;;
27744;SDS011;61387;48.112;8.616;2023-01-08T00:12:58;21.77;;;12.53;;
27744;SDS011;61387;48.112;8.616;2023-01-08T00:15:24;26.67;;;13.63;;
27744;SDS011;61387;48.112;8.616;2023-01-08T00:17:50;24.30;;;13.10;;
27744;SDS011;61387;48.112;8.616;2023-01-08T00:20:15;23.80;;;13.00;;
27744;SDS011;61387;48.112;8.616;2023-01-08T00:22:41;23.40;;;13.20;;
27744;SDS011;61387;48.112;8.616;2023-01-08T00:25:07;21.33;;;13.00;;
27744;SDS011;61387;48.112;8.616;2023-01-08T00:27:33;22.60;;;12.07;;
27744;SDS011;61387;48.112;8.616;2023-01-08T00:29:59;21.50;;;12.63;;
27744;SDS011;61387;48.112;8.616;2023-01-08T00:32:25;20.27;;;11.73;;
27744;SDS011;61387;48.112;8.616;2023-01-08T00:34:51;19.67;;;11.57;;
27744;SDS011;61387;48.112;8.616;2023-01-08T00:37:18;22.57;;;12.13;;
27744;SDS011;61387;48.112;8.616;2023-01-08T00:39:44;22.60;;;11.57;;
27744;SDS011;61387;48.112;8.616;2023-01-08T00:42:10;22.63;;;12.50;;
27744;SDS011;61387;48.112;8.616;2023-01-08T00:44:37;21.20;;;12.10;;
27744;SDS011;61387;48.112;8.616;2023-01-08T00:47:03;22.73;;;12.73;;
27744;SDS011;61387;48.112;8.616;2023-01-08T00:49:28;22.67;;;11.70;;
27744;SDS011;61387;48.112;8.616;2023-01-08T00:51:54;23.67;;;12.70;;
27744;SDS011;61387;48.112;8.616;2023-01-08T00:54:20;23.63;;;13.10;;
27744;SDS011;61387;48.112;8.616;2023-01-08T00:56:46;23.30;;;12.10;;
27744;SDS011;61387;48.112;8.616;2023-01-08T00:59:12;22.47;;;12.53;;
27744;SDS011;61387;48.112;8.616;2023-01-08T01:01:38;24.70;;;13.33;;
27744;SDS011;61387;48.112;8.616;2023-01-08T01:04:04;20.70;;;12.40;;
27744;SDS011;61387;48.112;8.616;2023-01-08T01:06:30;25.90;;;13.67;;
27744;SDS011;61387;48.112;8.616;2023-01-08T01:08:55;22.47;;;13.87;;
27744;SDS011;61387;48.112;8.616;2023-01-08T01:11:22;22.80;;;12.97;;
27744;SDS011;61387;48.112;8.616;2023-01-08T01:13:49;20.27;;;12.70;;
27744;SDS011;61387;48.112;8.616;2023-01-08T01:16:15;20.43;;;11.93;;
27744;SDS011;61387;48.112;8.616;2023-01-08T01:18:41;20.37;;;11.93;;
27744;SDS011;61387;48.112;8.616;2023-01-08T01:21:11;22.93;;;12.23;;
27744;SDS011;61387;48.112;8.616;2023-01-08T01:23:41;19.27;;;11.53;;
27744;SDS011;61387;48.112;8.616;2023-01-08T01:26:13;21.73;;;12.83;;
27744;SDS011;61387;48.112;8.616;2023-01-08T01:28:42;24.00;;;13.03;;
27744;SDS011;61387;48.112;8.616;2023-01-08T01:31:09;23.97;;;13.00;;
27744;SDS011;61387;48.112;8.616;2023-01-08T01:33:37;20.47;;;12.23;;
27744;SDS011;61387;48.112;8.616;2023-01-08T01:36:03;22.67;;;13.23;;
27744;SDS011;61387;48.112;8.616;2023-01-08T01:38:29;23.17;;;13.40;;
27744;SDS011;61387;48.112;8.616;2023-01-08T01:40:55;24.20;;;13.17;;
27744;SDS011;61387;48.112;8.616;2023-01-08T01:43:40;23.27;;;12.73;;
27744;SDS011;61387;48.112;8.616;2023-01-08T01:46:27;23.63;;;12.70;;
27744;SDS011;61387;48.112;8.616;2023-01-08T01:49:04;22.87;;;13.10;;
27744;SDS011;61387;48.112;8.616;2023-01-08T01:51:33;24.47;;;13.67;;
27744;SDS011;61387;48.112;8.616;2023-01-08T01:54:02;23.23;;;13.60;;
27744;SDS011;61387;48.112;8.616;2023-01-08T01:56:31;23.20;;;13.87;;
27744;SDS011;61387;48.112;8.616;2023-01-08T01:58:57;21.43;;;13.23;;
27744;SDS011;61387;48.112;8.616;2023-01-08T02:01:23;23.00;;;13.17;;
27744;SDS011;61387;48.112;8.616;2023-01-08T02:03:49;23.63;;;12.80;;
27744;SDS011;61387;48.112;8.616;2023-01-08T02:12:01;21.03;;;12.23;;
27744;SDS011;61387;48.112;8.616;2023-01-08T02:17:32;21.33;;;12.30;;
27744;SDS011;61387;48.112;8.616;2023-01-08T02:20:22;25.07;;;12.60;;
27744;SDS011;61387;48.112;8.616;2023-01-08T02:23:01;20.67;;;11.80;;
27744;SDS011;61387;48.112;8.616;2023-01-08T02:25:52;22.67;;;12.20;;
27744;SDS011;61387;48.112;8.616;2023-01-08T02:28:17;20.37;;;11.73;;
27744;SDS011;61387;48.112;8.616;2023-01-08T02:30:45;20.73;;;12.47;;
27744;SDS011;61387;48.112;8.616;2023-01-08T02:33:11;23.23;;;13.77;;
27744;SDS011;61387;48.112;8.616;2023-01-08T02:35:39;22.90;;;12.90;;
27744;SDS011;61387;48.112;8.616;2023-01-08T02:38:15;22.23;;;12.47;;
27744;SDS011;61387;48.112;8.616;2023-01-08T02:40:50;21.47;;;12.70;;
27744;SDS011;61387;48.112;8.616;2023-01-08T02:43:24;23.10;;;12.30;;
27744;SDS011;61387;48.112;8.616;2023-01-08T02:45:55;22.17;;;12.53;;
27744;SDS011;61387;48.112;8.616;2023-01-08T02:48:30;23.27;;;13.20;;
27744;SDS011;61387;48.112;8.616;2023-01-08T02:51:02;26.37;;;13.80;;
27744;SDS011;61387;48.112;8.616;2023-01-08T02:53:44;23.57;;;13.70;;
27744;SDS011;61387;48.112;8.616;2023-01-08T02:56:13;22.63;;;13.30;;
27744;SDS011;61387;48.112;8.616;2023-01-08T02:58:46;20.90;;;13.03;;
27744;SDS011;61387;48.112;8.616;2023-01-08T03:01:13;22.17;;;13.07;;
27744;SDS011;61387;48.112;8.616;2023-01-08T03:03:41;22.10;;;12.70;;
27744;SDS011;61387;48.112;8.616;2023-01-08T03:06:11;22.87;;;12.63;;
27744;SDS011;61387;48.112;8.616;2023-01-08T03:08:43;21.93;;;12.77;;
27744;SDS011;61387;48.112;8.616;2023-01-08T03:11:13;25.17;;;13.30;;
27744;SDS011;61387;48.112;8.616;2023-01-08T03:13:49;21.13;;;12.40;;
27744;SDS011;61387;48.112;8.616;2023-01-08T03:16:17;20.07;;;11.53;;
27744;SDS011;61387;48.112;8.616;2023-01-08T03:18:51;19.00;;;11.20;;
27744;SDS011;61387;48.112;8.616;2023-01-08T03:21:21;20.80;;;11.63;;
27744;SDS011;61387;48.112;8.616;2023-01-08T03:23:47;18.40;;;10.77;;
27744;SDS011;61387;48.112;8.616;2023-01-08T03:26:16;20.33;;;11.27;;
27744;SDS011;61387;48.112;8.616;2023-01-08T03:28:46;21.00;;;11.73;;
27744;SDS011;61387;48.112;8.616;2023-01-08T03:31:15;19.90;;;12.23;;
27744;SDS011;61387;48.112;8.616;2023-01-08T03:33:43;20.43;;;12.80;;
27744;SDS011;61387;48.112;8.616;2023-01-08T03:36:11;20.50;;;12.67;;
27744;SDS011;61387;48.112;8.616;2023-01-08T03:38:41;20.77;;;13.10;;
27744;SDS011;61387;48.112;8.616;2023-01-08T03:41:12;21.10;;;12.30;;
27744;SDS011;61387;48.112;8.616;2023-01-08T03:43:42;21.50;;;12.67;;
27744;SDS011;61387;48.112;8.616;2023-01-08T03:46:10;23.23;;;12.83;;
27744;SDS011;61387;48.112;8.616;2023-01-08T03:48:42;22.60;;;12.77;;
27744;SDS011;61387;48.112;8.616;2023-01-08T03:51:09;21.73;;;12.73;;
27744;SDS011;61387;48.112;8.616;2023-01-08T03:53:36;25.03;;;14.93;;
27744;SDS011;61387;48.112;8.616;2023-01-08T03:56:02;24.83;;;13.30;;
27744;SDS011;61387;48.112;8.616;2023-01-08T03:58:28;20.47;;;12.27;;
27744;SDS011;61387;48.112;8.616;2023-01-08T04:00:54;20.97;;;12.13;;
27744;SDS011;61387;48.112;8.616;2023-01-08T04:03:20;22.27;;;11.90;;
27744;SDS011;61387;48.112;8.616;2023-01-08T04:05:45;21.00;;;12.10;;
27744;SDS011;61387;48.112;8.616;2023-01-08T04:08:11;20.50;;;12.67;;
27744;SDS011;61387;48.112;8.616;2023-01-08T04:10:37;21.30;;;11.10;;
27744;SDS011;61387;48.112;8.616;2023-01-08T04:13:03;20.70;;;10.70;;
27744;SDS011;61387;48.112;8.616;2023-01-08T04:15:29;19.13;;;11.43;;
27744;SDS011;61387;48.112;8.616;2023-01-08T04:17:55;19.00;;;11.60;;
27744;SDS011;61387;48.112;8.616;2023-01-08T04:20:21;20.53;;;12.33;;
27744;SDS011;61387;48.112;8.616;2023-01-08T04:22:47;22.57;;;12.53;;
27744;SDS011;61387;48.112;8.616;2023-01-08T04:25:13;19.27;;;12.03;;
27744;SDS011;61387;48.112;8.616;2023-01-08T04:27:39;22.90;;;12.93;;
27744;SDS011;61387;48.112;8.616;2023-01-08T04:30:04;20.00;;;12.70;;
27744;SDS011;61387;48.112;8.616;2023-01-08T04:32:30;23.00;;;12.87;;
27744;SDS011;61387;48.112;8.616;2023-01-08T04:34:56;19.30;;;11.87;;
27744;SDS011;61387;48.112;8.616;2023-01-08T04:37:22;21.23;;;11.27;;
27744;SDS011;61387;48.112;8.616;2023-01-08T04:39:48;17.97;;;11.20;;
27744;SDS011;61387;48.112;8.616;2023-01-08T04:42:14;15.33;;;10.00;;
27744;SDS011;61387;48.112;8.616;2023-01-08T04:44:40;16.47;;;9.90;;
27744;SDS011;61387;48.112;8.616;2023-01-08T04:47:06;15.43;;;9.60;;
27744;SDS011;61387;48.112;8.616;2023-01-08T04:49:31;14.97;;;9.53;;
27744;SDS011;61387;48.112;8.616;2023-01-08T04:51:57;14.20;;;9.03;;
27744;SDS011;61387;48.112;8.616;2023-01-08T04:54:23;14.00;;;8.70;;
27744;SDS011;61387;48.112;8.616;2023-01-08T04:56:49;16.30;;;8.63;;
27744;SDS011;61387;48.112;8.616;2023-01-08T04:59:15;14.57;;;8.27;;
27744;SDS011;61387;48.112;8.616;2023-01-08T05:01:41;13.53;;;9.17;;
27744;SDS011;61387;48.112;8.616;2023-01-08T05:04:09;17.90;;;11.17;;
27744;SDS011;61387;48.112;8.616;2023-01-08T05:06:35;16.67;;;10.80;;
27744;SDS011;61387;48.112;8.616;2023-01-08T05:09:01;17.33;;;11.13;;
27744;SDS011;61387;48.112;8.616;2023-01-08T05:11:27;17.47;;;10.43;;
27744;SDS011;61387;48.112;8.616;2023-01-08T05:13:53;18.53;;;11.47;;
27744;SDS011;61387;48.112;8.616;2023-01-08T05:16:20;15.87;;;10.53;;
27744;SDS011;61387;48.112;8.616;2023-01-08T05:18:46;16.77;;;10.53;;
27744;SDS011;61387;48.112;8.616;2023-01-08T05:21:12;17.27;;;10.57;;
27744;SDS011;61387;48.112;8.616;2023-01-08T05:23:38;16.00;;;10.27;;
27744;SDS011;61387;48.112;8.616;2023-01-08T05:26:05;19.20;;;10.40;;
27744;SDS011;61387;48.112;8.616;2023-01-08T05:28:31;19.10;;;10.13;;
27744;SDS011;61387;48.112;8.616;2023-01-08T05:30:57;22.30;;;10.83;;
27744;SDS011;61387;48.112;8.616;2023-01-08T05:33:24;20.10;;;10.40;;
27744;SDS011;61387;48.112;8.616;2023-01-08T05:35:50;9.07;;;5.00;;
27744;SDS011;61387;48.112;8.616;2023-01-08T05:38:16;20.23;;;10.87;;
27744;SDS011;61387;48.112;8.616;2023-01-08T05:40:42;19.70;;;10.93;;
27744;SDS011;61387;48.112;8.616;2023-01-08T05:43:08;18.60;;;10.00;;
27744;SDS011;61387;48.112;8.616;2023-01-08T05:45:34;12.10;;;7.43;;
27744;SDS011;61387;48.112;8.616;2023-01-08T05:48:03;4.87;;;2.80;;
27744;SDS011;61387;48.112;8.616;2023-01-08T05:50:30;4.03;;;1.90;;
27744;SDS011;61387;48.112;8.616;2023-01-08T05:52:56;2.87;;;1.90;;
27744;SDS011;61387;48.112;8.616;2023-01-08T05:55:22;3.00;;;1.60;;
27744;SDS011;61387;48.112;8.616;2023-01-08T05:57:48;2.17;;;1.60;;
27744;SDS011;61387;48.112;8.616;2023-01-08T06:00:14;2.73;;;1.70;;
27744;SDS011;61387;48.112;8.616;2023-01-08T06:02:44;2.10;;;1.67;;
27744;SDS011;61387;48.112;8.616;2023-01-08T06:05:12;2.70;;;1.87;;
27744;SDS011;61387;48.112;8.616;2023-01-08T06:07:38;4.27;;;2.13;;
27744;SDS011;61387;48.112;8.616;2023-01-08T06:10:04;2.87;;;1.73;;
27744;SDS011;61387;48.112;8.616;2023-01-08T06:12:30;4.40;;;1.80;;
27744;SDS011;61387;48.112;8.616;2023-01-08T06:14:56;2.77;;;2.10;;
27744;SDS011;61387;48.112;8.616;2023-01-08T06:17:22;2.93;;;1.50;;
27744;SDS011;61387;48.112;8.616;2023-01-08T06:19:48;3.13;;;1.30;;
27744;SDS011;61387;48.112;8.616;2023-01-08T06:22:14;2.40;;;1.23;;
27744;SDS011;61387;48.112;8.616;2023-01-08T06:24:40;3.03;;;1.20;;
27744;SDS011;61387;48.112;8.616;2023-01-08T06:27:05;1.70;;;0.83;;
27744;SDS011;61387;48.112;8.616;2023-01-08T06:29:31;1.73;;;1.13;;
27744;SDS011;61387;48.112;8.616;2023-01-08T06:31:57;1.87;;;1.20;;
27744;SDS011;61387;48.112;8.616;2023-01-08T06:34:23;1.30;;;1.00;;
27744;SDS011;61387;48.112;8.616;2023-01-08T06:36:49;2.17;;;1.10;;
27744;SDS011;61387;48.112;8.616;2023-01-08T06:39:15;3.33;;;1.10;;
27744;SDS011;61387;48.112;8.616;2023-01-08T06:41:41;1.97;;;0.63;;
27744;SDS011;61387;48.112;8.616;2023-01-08T06:44:07;1.00;;;0.90;;
27744;SDS011;61387;48.112;8.616;2023-01-08T06:46:33;1.20;;;1.00;;
27744;SDS011;61387;48.112;8.616;2023-01-08T06:49:07;1.50;;;1.10;;
27744;SDS011;61387;48.112;8.616;2023-01-08T06:51:33;1.30;;;1.10;;
27744;SDS011;61387;48.112;8.616;2023-01-08T06:53:59;1.30;;;1.13;;
27744;SDS011;61387;48.112;8.616;2023-01-08T06:56:25;1.30;;;1.03;;
27744;SDS011;61387;48.112;8.616;2023-01-08T06:58:51;3.43;;;1.87;;
27744;SDS011;61387;48.112;8.616;2023-01-08T07:01:17;2.33;;;1.23;;
27744;SDS011;61387;48.112;8.616;2023-01-08T07:03:43;2.03;;;1.23;;
27744;SDS011;61387;48.112;8.616;2023-01-08T07:06:13;4.57;;;2.08;;
27744;SDS011;61387;48.112;8.616;2023-01-08T07:08:41;5.13;;;1.33;;
27744;SDS011;61387;48.112;8.616;2023-01-08T07:11:07;2.37;;;1.20;;
27744;SDS011;61387;48.112;8.616;2023-01-08T07:13:32;2.67;;;1.30;;
27744;SDS011;61387;48.112;8.616;2023-01-08T07:16:03;1.87;;;1.42;;
27744;SDS011;61387;48.112;8.616;2023-01-08T07:18:30;4.10;;;1.43;;
27744;SDS011;61387;48.112;8.616;2023-01-08T07:20:56;2.83;;;1.60;;
27744;SDS011;61387;48.112;8.616;2023-01-08T07:23:22;2.87;;;1.80;;
27744;SDS011;61387;48.112;8.616;2023-01-08T07:25:48;7.63;;;4.80;;
27744;SDS011;61387;48.112;8.616;2023-01-08T07:28:14;9.83;;;4.10;;
27744;SDS011;61387;48.112;8.616;2023-01-08T07:30:40;4.43;;;2.20;;
27744;SDS011;61387;48.112;8.616;2023-01-08T07:33:07;4.53;;;2.27;;
27744;SDS011;61387;48.112;8.616;2023-01-08T07:35:33;3.57;;;2.30;;
27744;SDS011;61387;48.112;8.616;2023-01-08T07:37:59;6.53;;;2.50;;
27744;SDS011;61387;48.112;8.616;2023-01-08T07:40:25;5.20;;;3.20;;
27744;SDS011;61387;48.112;8.616;2023-01-08T07:43:01;3.53;;;2.60;;
27744;SDS011;61387;48.112;8.616;2023-01-08T07:45:28;4.00;;;2.67;;
27744;SDS011;61387;48.112;8.616;2023-01-08T07:47:58;4.70;;;2.80;;
27744;SDS011;61387;48.112;8.616;2023-01-08T07:50:24;7.17;;;3.60;;
27744;SDS011;61387;48.112;8.616;2023-01-08T07:52:50;4.87;;;3.00;;
27744;SDS011;61387;48.112;8.616;2023-01-08T07:55:16;5.03;;;3.00;;
27744;SDS011;61387;48.112;8.616;2023-01-08T07:57:42;6.43;;;3.80;;
27744;SDS011;61387;48.112;8.616;2023-01-08T08:00:08;5.60;;;3.77;;
27744;SDS011;61387;48.112;8.616;2023-01-08T08:02:34;9.00;;;3.93;;
27744;SDS011;61387;48.112;8.616;2023-01-08T08:05:00;6.47;;;3.73;;
27744;SDS011;61387;48.112;8.616;2023-01-08T08:07:28;4.40;;;3.13;;
27744;SDS011;61387;48.112;8.616;2023-01-08T08:09:54;6.53;;;3.67;;
27744;SDS011;61387;48.112;8.616;2023-01-08T08:12:22;6.77;;;3.73;;
27744;SDS011;61387;48.112;8.616;2023-01-08T08:14:48;7.70;;;3.77;;
27744;SDS011;61387;48.112;8.616;2023-01-08T08:17:14;10.43;;;4.73;;
27744;SDS011;61387;48.112;8.616;2023-01-08T08:19:40;5.80;;;3.43;;
27744;SDS011;61387;48.112;8.616;2023-01-08T08:22:08;6.00;;;2.90;;
27744;SDS011;61387;48.112;8.616;2023-01-08T08:24:34;5.83;;;3.00;;
27744;SDS011;61387;48.112;8.616;2023-01-08T08:27:00;7.90;;;3.13;;
27744;SDS011;61387;48.112;8.616;2023-01-08T08:29:25;4.87;;;2.90;;
27744;SDS011;61387;48.112;8.616;2023-01-08T08:31:51;5.80;;;3.10;;
27744;SDS011;61387;48.112;8.616;2023-01-08T08:34:17;4.77;;;2.47;;
27744;SDS011;61387;48.112;8.616;2023-01-08T08:36:46;4.27;;;2.50;;
27744;SDS011;61387;48.112;8.616;2023-01-08T08:39:12;5.33;;;2.77;;
27744;SDS011;61387;48.112;8.616;2023-01-08T08:41:38;5.27;;;2.73;;
27744;SDS011;61387;48.112;8.616;2023-01-08T08:44:03;4.13;;;2.63;;
27744;SDS011;61387;48.112;8.616;2023-01-08T08:46:29;4.27;;;2.40;;
27744;SDS011;61387;48.112;8.616;2023-01-08T08:48:55;4.17;;;2.53;;
27744;SDS011;61387;48.112;8.616;2023-01-08T08:51:21;5.97;;;2.63;;
27744;SDS011;61387;48.112;8.616;2023-01-08T08:53:47;3.47;;;1.97;;
27744;SDS011;61387;48.112;8.616;2023-01-08T08:56:13;4.57;;;2.40;;
27744;SDS011;61387;48.112;8.616;2023-01-08T08:58:38;3.90;;;2.13;;
27744;SDS011;61387;48.112;8.616;2023-01-08T09:01:09;3.87;;;2.10;;
27744;SDS011;61387;48.112;8.616;2023-01-08T09:03:35;4.17;;;2.27;;
27744;SDS011;61387;48.112;8.616;2023-01-08T09:06:01;4.77;;;2.00;;
27744;SDS011;61387;48.112;8.616;2023-01-08T09:08:40;2.87;;;2.00;;
27744;SDS011;61387;48.112;8.616;2023-01-08T09:11:06;4.00;;;2.33;;
27744;SDS011;61387;48.112;8.616;2023-01-08T09:13:31;5.32;;;2.40;;
27744;SDS011;61387;48.112;8.616;2023-01-08T09:15:57;4.30;;;2.30;;
27744;SDS011;61387;48.112;8.616;2023-01-08T09:18:24;2.93;;;2.03;;
27744;SDS011;61387;48.112;8.616;2023-01-08T09:20:49;3.90;;;2.10;;
27744;SDS011;61387;48.112;8.616;2023-01-08T09:23:15;4.07;;;1.80;;
27744;SDS011;61387;48.112;8.616;2023-01-08T09:25:41;3.30;;;2.23;;
27744;SDS011;61387;48.112;8.616;2023-01-08T09:28:09;2.43;;;1.60;;
27744;SDS011;61387;48.112;8.616;2023-01-08T09:30:36;2.60;;;1.83;;
27744;SDS011;61387;48.112;8.616;2023-01-08T09:33:02;3.00;;;1.80;;
27744;SDS011;61387;48.112;8.616;2023-01-08T09:35:29;4.37;;;2.40;;
27744;SDS011;61387;48.112;8.616;2023-01-08T09:37:55;3.57;;;1.90;;
27744;SDS011;61387;48.112;8.616;2023-01-08T09:40:21;3.43;;;1.80;;
27744;SDS011;61387;48.112;8.616;2023-01-08T09:42:56;3.47;;;1.80;;
27744;SDS011;61387;48.112;8.616;2023-01-08T09:45:29;2.97;;;1.77;;
27744;SDS011;61387;48.112;8.616;2023-01-08T09:48:01;3.27;;;2.10;;
27744;SDS011;61387;48.112;8.616;2023-01-08T09:50:30;4.00;;;2.50;;
27744;SDS011;61387;48.112;8.616;2023-01-08T09:52:57;4.43;;;2.10;;
27744;SDS011;61387;48.112;8.616;2023-01-08T09:55:23;4.37;;;2.27;;
27744;SDS011;61387;48.112;8.616;2023-01-08T09:57:49;6.43;;;2.43;;
27744;SDS011;61387;48.112;8.616;2023-01-08T10:00:20;4.73;;;2.33;;
27744;SDS011;61387;48.112;8.616;2023-01-08T10:02:52;4.63;;;2.63;;
27744;SDS011;61387;48.112;8.616;2023-01-08T10:05:19;4.93;;;2.70;;
27744;SDS011;61387;48.112;8.616;2023-01-08T10:07:45;3.47;;;2.30;;
27744;SDS011;61387;48.112;8.616;2023-01-08T10:10:19;4.17;;;2.30;;
27744;SDS011;61387;48.112;8.616;2023-01-08T10:12:48;6.40;;;3.13;;
27744;SDS011;61387;48.112;8.616;2023-01-08T10:15:15;4.57;;;2.47;;
27744;SDS011;61387;48.112;8.616;2023-01-08T10:20:24;7.40;;;4.87;;
27744;SDS011;61387;48.112;8.616;2023-01-08T10:22:51;24.83;;;15.57;;
27744;SDS011;61387;48.112;8.616;2023-01-08T10:25:24;53.67;;;29.87;;
27744;SDS011;61387;48.112;8.616;2023-01-08T10:27:53;5.70;;;2.77;;
27744;SDS011;61387;48.112;8.616;2023-01-08T10:32:55;3.43;;;2.33;;
27744;SDS011;61387;48.112;8.616;2023-01-08T10:35:36;5.10;;;2.93;;
27744;SDS011;61387;48.112;8.616;2023-01-08T10:38:04;5.33;;;2.97;;
27744;SDS011;61387;48.112;8.616;2023-01-08T10:40:39;4.17;;;2.37;;
27744;SDS011;61387;48.112;8.616;2023-01-08T10:46:11;4.47;;;2.53;;
27744;SDS011;61387;48.112;8.616;2023-01-08T10:48:46;4.73;;;2.07;;
27744;SDS011;61387;48.112;8.616;2023-01-08T10:51:18;5.70;;;2.80;;
27744;SDS011;61387;48.112;8.616;2023-01-08T10:53:48;5.27;;;2.40;;
27744;SDS011;61387;48.112;8.616;2023-01-08T10:56:18;9.73;;;4.10;;
27744;SDS011;61387;48.112;8.616;2023-01-08T10:58:47;6.17;;;3.43;;
27744;SDS011;61387;48.112;8.616;2023-01-08T11:01:25;6.90;;;3.40;;
27744;SDS011;61387;48.112;8.616;2023-01-08T11:03:55;3.57;;;2.40;;
27744;SDS011;61387;48.112;8.616;2023-01-08T11:06:29;4.63;;;2.60;;
27744;SDS011;61387;48.112;8.616;2023-01-08T11:09:01;4.10;;;2.57;;
27744;SDS011;61387;48.112;8.616;2023-01-08T11:11:37;3.90;;;2.60;;
27744;SDS011;61387;48.112;8.616;2023-01-08T11:16:46;4.80;;;3.90;;
27744;SDS011;61387;48.112;8.616;2023-01-08T11:19:16;4.67;;;2.70;;
27744;SDS011;61387;48.112;8.616;2023-01-08T11:21:54;5.93;;;3.13;;
27744;SDS011;61387;48.112;8.616;2023-01-08T11:24:28;2.90;;;1.80;;
27744;SDS011;61387;48.112;8.616;2023-01-08T11:27:07;4.83;;;2.10;;
27744;SDS011;61387;48.112;8.616;2023-01-08T11:29:52;3.27;;;1.80;;
27744;SDS011;61387;48.112;8.616;2023-01-08T11:32:46;4.07;;;2.20;;
27744;SDS011;61387;48.112;8.616;2023-01-08T11:35:36;2.83;;;1.60;;
27744;SDS011;61387;48.112;8.616;2023-01-08T11:38:13;3.50;;;2.03;;
27744;SDS011;61387;48.112;8.616;2023-01-08T11:49:17;2.27;;;1.77;;
27744;SDS011;61387;48.112;8.616;2023-01-08T11:58:05;2.27;;;1.50;;
27744;SDS011;61387;48.112;8.616;2023-01-08T12:03:35;2.27;;;1.60;;
27744;SDS011;61387;48.112;8.616;2023-01-08T12:06:35;2.93;;;1.60;;
27744;SDS011;61387;48.112;8.616;2023-01-08T12:15:15;14.13;;;11.13;;
27744;SDS011;61387;48.112;8.616;2023-01-08T12:26:47;1.80;;;1.50;;
27744;SDS011;61387;48.112;8.616;2023-01-08T12:35:18;2.83;;;1.90;;
27744;SDS011;61387;48.112;8.616;2023-01-08T12:37:55;4.10;;;2.33;;
27744;SDS011;61387;48.112;8.616;2023-01-08T12:40:26;2.73;;;1.80;;
27744;SDS011;61387;48.112;8.616;2023-01-08T12:43:14;2.20;;;1.67;;
27744;SDS011;61387;48.112;8.616;2023-01-08T12:45:49;4.17;;;2.00;;
27744;SDS011;61387;48.112;8.616;2023-01-08T12:48:25;3.17;;;1.90;;
27744;SDS011;61387;48.112;8.616;2023-01-08T12:51:03;3.17;;;2.00;;
27744;SDS011;61387;48.112;8.616;2023-01-08T13:01:39;2.90;;;2.20;;
27744;SDS011;61387;48.112;8.616;2023-01-08T13:04:14;3.80;;;2.27;;
27744;SDS011;61387;48.112;8.616;2023-01-08T13:09:30;5.13;;;2.30;;
27744;SDS011;61387;48.112;8.616;2023-01-08T13:11:57;2.27;;;1.60;;
27744;SDS011;61387;48.112;8.616;2023-01-08T13:14:24;3.97;;;2.10;;
27744;SDS011;61387;48.112;8.616;2023-01-08T13:17:02;2.50;;;1.97;;
27744;SDS011;61387;48.112;8.616;2023-01-08T13:19:42;3.43;;;1.90;;
27744;SDS011;61387;48.112;8.616;2023-01-08T13:22:25;6.53;;;3.93;;
27744;SDS011;61387;48.112;8.616;2023-01-08T13:25:10;12.50;;;5.40;;
27744;SDS011;61387;48.112;8.616;2023-01-08T13:27:53;4.67;;;2.23;;
27744;SDS011;61387;48.112;8.616;2023-01-08T13:33:02;2.90;;;1.87;;
27744;SDS011;61387;48.112;8.616;2023-01-08T13:38:36;3.73;;;1.90;;
27744;SDS011;61387;48.112;8.616;2023-01-08T13:41:22;2.47;;;1.70;;
27744;SDS011;61387;48.112;8.616;2023-01-08T13:43:57;4.40;;;2.70;;
27744;SDS011;61387;48.112;8.616;2023-01-08T13:46:31;3.60;;;2.40;;
27744;SDS011;61387;48.112;8.616;2023-01-08T13:53:54;3.63;;;2.10;;
27744;SDS011;61387;48.112;8.616;2023-01-08T13:56:20;3.60;;;2.40;;
27744;SDS011;61387;48.112;8.616;2023-01-08T13:58:50;14.73;;;7.63;;
27744;SDS011;61387;48.112;8.616;2023-01-08T14:01:18;4.43;;;2.50;;
27744;SDS011;61387;48.112;8.616;2023-01-08T14:03:45;3.10;;;2.00;;
27744;SDS011;61387;48.112;8.616;2023-01-08T14:11:33;3.47;;;2.50;;
27744;SDS011;61387;48.112;8.616;2023-01-08T14:14:11;4.67;;;3.30;;
27744;SDS011;61387;48.112;8.616;2023-01-08T14:16:37;3.73;;;2.80;;
27744;SDS011;61387;48.112;8.616;2023-01-08T14:19:04;3.83;;;2.83;;
27744;SDS011;61387;48.112;8.616;2023-01-08T14:21:30;5.00;;;3.10;;
27744;SDS011;61387;48.112;8.616;2023-01-08T14:23:55;4.40;;;2.77;;
27744;SDS011;61387;48.112;8.616;2023-01-08T14:28:51;3.80;;;2.47;;
27744;SDS011;61387;48.112;8.616;2023-01-08T14:31:19;6.00;;;3.33;;
27744;SDS011;61387;48.112;8.616;2023-01-08T14:33:46;6.00;;;3.53;;
27744;SDS011;61387;48.112;8.616;2023-01-08T14:36:12;8.03;;;3.60;;
27744;SDS011;61387;48.112;8.616;2023-01-08T14:38:38;29.40;;;14.53;;
27744;SDS011;61387;48.112;8.616;2023-01-08T14:41:06;5.03;;;3.30;;
27744;SDS011;61387;48.112;8.616;2023-01-08T14:43:43;4.50;;;2.73;;
27744;SDS011;61387;48.112;8.616;2023-01-08T14:46:31;4.87;;;2.90;;
27744;SDS011;61387;48.112;8.616;2023-01-08T14:48:56;5.43;;;2.80;;
27744;SDS011;61387;48.112;8.616;2023-01-08T14:51:23;5.47;;;3.03;;
27744;SDS011;61387;48.112;8.616;2023-01-08T14:54:02;4.57;;;2.50;;
27744;SDS011;61387;48.112;8.616;2023-01-08T14:56:31;3.47;;;2.53;;
27744;SDS011;61387;48.112;8.616;2023-01-08T14:58:58;4.83;;;2.57;;
27744;SDS011;61387;48.112;8.616;2023-01-08T15:01:25;3.13;;;2.10;;
27744;SDS011;61387;48.112;8.616;2023-01-08T15:04:13;5.33;;;3.20;;
27744;SDS011;61387;48.112;8.616;2023-01-08T15:06:42;4.90;;;2.63;;
27744;SDS011;61387;48.112;8.616;2023-01-08T15:09:21;49.50;;;26.37;;
27744;SDS011;61387;48.112;8.616;2023-01-08T15:11:51;5.63;;;4.07;;
27744;SDS011;61387;48.112;8.616;2023-01-08T15:14:20;6.73;;;3.97;;
27744;SDS011;61387;48.112;8.616;2023-01-08T15:16:48;5.20;;;3.07;;
27744;SDS011;61387;48.112;8.616;2023-01-08T15:19:15;4.67;;;2.67;;
27744;SDS011;61387;48.112;8.616;2023-01-08T15:21:50;8.10;;;4.43;;
27744;SDS011;61387;48.112;8.616;2023-01-08T15:24:29;4.70;;;2.27;;
27744;SDS011;61387;48.112;8.616;2023-01-08T15:26:56;5.00;;;2.93;;
27744;SDS011;61387;48.112;8.616;2023-01-08T15:29:27;5.73;;;3.80;;
27744;SDS011;61387;48.112;8.616;2023-01-08T15:32:10;7.80;;;5.00;;
27744;SDS011;61387;48.112;8.616;2023-01-08T15:34:46;7.67;;;4.63;;
27744;SDS011;61387;48.112;8.616;2023-01-08T15:37:12;4.23;;;2.97;;
27744;SDS011;61387;48.112;8.616;2023-01-08T15:39:38;4.77;;;2.90;;
27744;SDS011;61387;48.112;8.616;2023-01-08T15:42:50;6.13;;;3.97;;
27744;SDS011;61387;48.112;8.616;2023-01-08T15:45:20;6.93;;;3.93;;
27744;SDS011;61387;48.112;8.616;2023-01-08T15:47:47;18.73;;;9.97;;
27744;SDS011;61387;48.112;8.616;2023-01-08T15:50:13;6.97;;;2.97;;
27744;SDS011;61387;48.112;8.616;2023-01-08T15:52:39;5.33;;;2.50;;
27744;SDS011;61387;48.112;8.616;2023-01-08T15:55:08;5.23;;;3.27;;
27744;SDS011;61387;48.112;8.616;2023-01-08T15:57:39;5.00;;;2.83;;
27744;SDS011;61387;48.112;8.616;2023-01-08T16:00:05;5.67;;;2.93;;
27744;SDS011;61387;48.112;8.616;2023-01-08T16:02:39;5.63;;;2.97;;
27744;SDS011;61387;48.112;8.616;2023-01-08T16:05:05;5.43;;;3.40;;
27744;SDS011;61387;48.112;8.616;2023-01-08T16:07:31;6.83;;;3.70;;
27744;SDS011;61387;48.112;8.616;2023-01-08T16:09:57;6.00;;;3.23;;
27744;SDS011;61387;48.112;8.616;2023-01-08T16:12:23;5.00;;;3.10;;
27744;SDS011;61387;48.112;8.616;2023-01-08T16:14:49;3.80;;;2.60;;
27744;SDS011;61387;48.112;8.616;2023-01-08T16:17:14;5.47;;;3.33;;